Time;durP1;ratioP1;P1;durP2;ratioP2;P2;SDS_P1;SDS_P2;PMS_P1;PMS_P2;Temp;Humidity;BMP_temperature;BMP_pressure;BME280_temperature;BME280_humidity;BME280_pressure;Samples;Min_cycle;Max_cycle;Signal;HPM_P1;HPM_P2
2023/05/11 00:01:33;;;;;;;8.02;3.22;;;12.00;99.90;;;;;;5053799;28;20642;-72
2023/05/11 00:04:00;;;;;;;6.28;2.15;;;11.90;99.90;;;;;;5053353;28;20210;-74
2023/05/11 00:06:27;;;;;;;4.50;1.63;;;12.00;99.90;;;;;;5053705;28;20207;-73
2023/05/11 00:08:54;;;;;;;6.65;1.92;;;12.00;99.90;;;;;;5053548;28;20203;-73
2023/05/11 00:11:22;;;;;;;7.55;1.85;;;12.10;99.90;;;;;;5053410;28;20249;-74
2023/05/11 00:13:50;;;;;;;5.70;2.38;;;12.00;99.90;;;;;;5053338;28;20203;-74
2023/05/11 00:16:17;;;;;;;6.28;2.35;;;12.00;99.90;;;;;;5053572;28;20242;-77
2023/05/11 00:18:44;;;;;;;4.60;1.73;;;12.00;99.90;;;;;;5053147;28;20234;-73
2023/05/11 00:21:11;;;;;;;6.40;1.98;;;12.20;99.90;;;;;;5052443;28;20238;-71
2023/05/11 00:23:38;;;;;;;6.70;2.40;;;12.20;99.90;;;;;;5053574;28;20671;-73
2023/05/11 00:26:05;;;;;;;5.53;1.83;;;12.20;99.90;;;;;;5052869;28;20199;-73
2023/05/11 00:28:32;;;;;;;7.15;2.42;;;12.20;99.90;;;;;;5053262;28;20214;-73
2023/05/11 00:31:00;;;;;;;9.13;2.15;;;12.20;99.90;;;;;;5052877;28;20234;-74
2023/05/11 00:33:27;;;;;;;6.72;2.00;;;12.10;99.90;;;;;;5053263;28;20206;-76
2023/05/11 00:35:54;;;;;;;7.20;2.42;;;12.20;99.90;;;;;;5053013;28;20231;-75
2023/05/11 00:38:21;;;;;;;6.22;2.63;;;12.20;99.90;;;;;;5053111;28;20281;-75
2023/05/11 00:40:49;;;;;;;7.30;2.63;;;12.10;99.90;;;;;;5052535;28;20257;-75
2023/05/11 00:43:16;;;;;;;7.38;2.75;;;12.00;99.90;;;;;;5053123;28;20214;-74
2023/05/11 00:45:46;;;;;;;8.90;3.75;;;12.00;99.90;;;;;;5052511;28;20240;-73
2023/05/11 00:48:15;;;;;;;11.30;2.58;;;12.00;99.90;;;;;;5052774;28;20242;-75
2023/05/11 00:50:42;;;;;;;17.92;2.45;;;11.80;99.90;;;;;;5053119;28;20258;-74
2023/05/11 00:53:10;;;;;;;6.93;2.33;;;11.90;99.90;;;;;;5053023;28;20690;-75
2023/05/11 00:55:37;;;;;;;18.40;2.83;;;11.90;99.90;;;;;;5053273;28;20229;-74
2023/05/11 00:58:05;;;;;;;5.93;2.70;;;11.90;99.90;;;;;;5052400;28;20269;-75
2023/05/11 01:00:32;;;;;;;11.23;2.47;;;11.80;99.90;;;;;;5052767;28;20206;-75
2023/05/11 01:03:01;;;;;;;7.72;2.70;;;11.90;99.90;;;;;;5052183;28;20238;-75
2023/05/11 01:05:35;;;;;;;6.75;2.55;;;11.90;99.90;;;;;;5052750;28;20207;-74
2023/05/11 01:08:08;;;;;;;9.88;2.28;;;11.90;99.90;;;;;;5052136;28;20245;-74
2023/05/11 01:10:42;;;;;;;12.60;2.75;;;12.00;99.90;;;;;;5052556;28;20230;-75
2023/05/11 01:13:18;;;;;;;8.20;2.58;;;11.90;99.90;;;;;;5052692;28;20564;-75
2023/05/11 01:15:50;;;;;;;9.40;2.00;;;11.90;99.90;;;;;;5051937;28;20198;-75
2023/05/11 01:18:22;;;;;;;10.43;3.58;;;12.00;99.90;;;;;;5052398;28;20270;-75
2023/05/11 01:20:55;;;;;;;9.75;3.40;;;11.90;99.90;;;;;;5051910;28;20242;-75
2023/05/11 01:23:52;;;;;;;7.32;2.63;;;12.00;99.90;;;;;;5052091;28;20682;-76
2023/05/11 01:26:47;;;;;;;14.93;2.70;;;12.00;99.90;;;;;;5045538;28;20243;-75
2023/05/11 01:29:43;;;;;;;9.10;2.20;;;12.00;99.90;;;;;;5052124;28;20206;-75
2023/05/11 01:32:18;;;;;;;8.38;2.50;;;11.90;99.90;;;;;;5052051;28;20245;-75
2023/05/11 01:34:47;;;;;;;10.82;3.20;;;11.90;99.90;;;;;;5051698;28;20249;-75
2023/05/11 01:37:18;;;;;;;6.78;3.10;;;11.90;99.90;;;;;;5051649;28;20250;-75
2023/05/11 01:39:51;;;;;;;5.97;2.42;;;12.00;99.90;;;;;;5051578;28;20257;-75
2023/05/11 01:42:24;;;;;;;11.13;3.15;;;12.00;99.90;;;;;;5051809;28;20246;-75
2023/05/11 01:44:53;;;;;;;7.55;2.80;;;11.90;99.90;;;;;;5051605;28;20281;-75
2023/05/11 01:47:23;;;;;;;8.15;2.53;;;11.90;99.90;;;;;;5051869;28;20210;-75
2023/05/11 01:49:52;;;;;;;6.60;2.78;;;12.00;99.90;;;;;;5051544;28;20209;-75
2023/05/11 01:52:23;;;;;;;6.28;2.70;;;12.00;99.90;;;;;;5051526;28;20289;-75
2023/05/11 01:54:52;;;;;;;7.22;2.80;;;12.00;99.90;;;;;;5051353;28;20293;-75
2023/05/11 01:57:21;;;;;;;13.07;3.70;;;12.00;99.90;;;;;;5051780;28;20230;-75
2023/05/11 01:59:50;;;;;;;12.80;3.45;;;11.90;99.90;;;;;;5051391;28;20202;-75
2023/05/11 02:02:18;;;;;;;11.00;2.83;;;11.90;99.90;;;;;;5051566;28;20309;-75
2023/05/11 02:04:47;;;;;;;10.77;4.57;;;11.80;99.90;;;;;;5051062;28;20241;-75
2023/05/11 02:07:16;;;;;;;10.30;3.95;;;11.70;99.90;;;;;;5051259;28;20222;-74
2023/05/11 02:09:44;;;;;;;8.48;4.00;;;11.70;99.90;;;;;;5051087;28;20698;-72
2023/05/11 02:12:12;;;;;;;9.48;3.45;;;11.70;99.90;;;;;;5051717;28;20241;-72
2023/05/11 02:14:40;;;;;;;6.75;2.67;;;11.60;99.90;;;;;;5051773;28;20234;-75
2023/05/11 02:17:08;;;;;;;9.25;3.58;;;11.60;99.90;;;;;;5051040;28;20270;-75
2023/05/11 02:19:38;;;;;;;12.52;4.15;;;11.60;99.90;;;;;;5051297;28;20270;-74
2023/05/11 02:22:06;;;;;;;11.52;2.83;;;11.60;99.90;;;;;;5050837;28;20206;-74
2023/05/11 02:24:34;;;;;;;11.38;3.60;;;11.50;99.90;;;;;;5051149;28;20635;-74
2023/05/11 02:27:01;;;;;;;4.25;2.58;;;11.50;99.90;;;;;;5050745;28;20756;-74
2023/05/11 02:29:28;;;;;;;7.57;2.83;;;11.50;99.90;;;;;;5050877;28;20744;-75
2023/05/11 02:32:05;;;;;;;12.27;4.90;;;11.40;99.90;;;;;;5050696;28;20241;-74
2023/05/11 02:34:38;;;;;;;7.80;3.10;;;11.30;99.90;;;;;;5051087;28;20245;-74
2023/05/11 02:37:12;;;;;;;12.93;3.55;;;11.40;99.90;;;;;;5050359;28;20234;-74
2023/05/11 02:39:44;;;;;;;11.15;3.47;;;11.40;99.90;;;;;;5051226;28;20288;-74
2023/05/11 02:42:14;;;;;;;10.45;3.50;;;11.50;99.90;;;;;;5051268;28;20213;-74
2023/05/11 02:44:50;;;;;;;7.55;3.70;;;11.40;99.90;;;;;;5050196;28;20238;-73
2023/05/11 02:47:20;;;;;;;12.10;3.78;;;11.40;99.90;;;;;;5050880;28;20268;-77
2023/05/11 02:49:52;;;;;;;8.48;2.63;;;11.40;99.90;;;;;;5050358;28;20265;-78
2023/05/11 02:52:22;;;;;;;8.52;3.88;;;11.50;99.90;;;;;;5051201;28;20214;-74
2023/05/11 02:54:51;;;;;;;7.95;3.08;;;11.40;99.90;;;;;;5050391;28;20324;-75
2023/05/11 02:57:18;;;;;;;9.82;4.38;;;11.30;99.90;;;;;;5050947;28;20234;-74
2023/05/11 02:59:46;;;;;;;9.43;3.00;;;11.50;99.90;;;;;;5050254;28;20238;-75
2023/05/11 03:02:13;;;;;;;14.90;3.97;;;11.60;99.90;;;;;;5050631;28;20214;-74
2023/05/11 03:04:40;;;;;;;8.23;3.17;;;11.50;99.90;;;;;;5050782;28;20211;-75
2023/05/11 03:07:07;;;;;;;11.70;3.08;;;11.60;99.90;;;;;;5050661;28;20231;-75
2023/05/11 03:09:36;;;;;;;5.50;2.47;;;11.40;99.90;;;;;;5050587;28;20249;-75
2023/05/11 03:12:03;;;;;;;10.82;3.45;;;11.50;99.90;;;;;;5050220;28;20753;-75
2023/05/11 03:14:32;;;;;;;7.85;3.08;;;11.50;99.90;;;;;;5050810;28;20268;-75
2023/05/11 03:17:00;;;;;;;14.55;4.30;;;11.50;99.90;;;;;;5050323;28;20238;-75
2023/05/11 03:19:28;;;;;;;11.15;3.83;;;11.50;99.90;;;;;;5050186;28;20274;-75
2023/05/11 03:21:57;;;;;;;9.68;2.65;;;11.40;99.90;;;;;;5050117;28;20242;-75
2023/05/11 03:24:25;;;;;;;11.15;3.53;;;11.20;99.90;;;;;;5050702;28;20231;-75
2023/05/11 03:26:54;;;;;;;7.53;3.15;;;11.20;99.90;;;;;;5050292;28;20647;-75
2023/05/11 03:29:25;;;;;;;7.20;3.60;;;11.20;99.90;;;;;;5050394;28;20742;-75
2023/05/11 03:31:51;;;;;;;4.20;1.90;;;11.20;99.90;;;;;;5049981;28;20238;-75
2023/05/11 03:34:18;;;;;;;8.52;3.55;;;11.10;99.90;;;;;;5050283;28;20235;-75
2023/05/11 03:36:48;;;;;;;6.28;3.20;;;11.00;99.90;;;;;;5050561;28;20246;-75
2023/05/11 03:39:16;;;;;;;10.90;2.78;;;11.10;99.90;;;;;;5050482;28;20261;-75
2023/05/11 03:41:44;;;;;;;7.30;2.20;;;11.20;99.90;;;;;;5050022;28;20242;-73
2023/05/11 03:44:14;;;;;;;10.40;3.42;;;11.20;99.90;;;;;;5050681;28;20231;-73
2023/05/11 03:46:42;;;;;;;5.72;3.28;;;11.10;99.90;;;;;;5050599;28;20203;-75
2023/05/11 03:49:09;;;;;;;11.27;3.65;;;11.00;99.90;;;;;;5050224;28;20694;-75
2023/05/11 03:51:36;;;;;;;10.77;3.00;;;11.00;99.90;;;;;;5050728;28;20227;-75
2023/05/11 03:54:03;;;;;;;6.75;2.55;;;11.10;99.90;;;;;;5049838;28;20249;-74
2023/05/11 03:56:30;;;;;;;5.18;2.10;;;11.20;99.90;;;;;;5052069;28;20238;-75
2023/05/11 03:58:58;;;;;;;11.00;2.58;;;11.20;99.90;;;;;;5053538;28;20733;-77
2023/05/11 04:01:26;;;;;;;4.80;2.55;;;11.10;99.90;;;;;;5053684;28;20678;-73
2023/05/11 04:03:53;;;;;;;6.35;2.95;;;11.10;99.90;;;;;;5053476;28;20247;-74
2023/05/11 04:06:20;;;;;;;5.00;2.63;;;11.00;99.90;;;;;;5053550;28;20207;-74
2023/05/11 04:08:48;;;;;;;11.90;2.95;;;11.10;99.90;;;;;;5053360;28;20630;-74
2023/05/11 04:11:15;;;;;;;7.90;3.92;;;11.10;99.90;;;;;;5053854;28;20630;-74
2023/05/11 04:13:42;;;;;;;6.50;2.42;;;11.20;99.90;;;;;;5053777;28;20230;-73
2023/05/11 04:16:08;;;;;;;6.40;2.70;;;11.20;99.90;;;;;;5053822;28;20238;-74
2023/05/11 04:18:37;;;;;;;14.20;2.67;;;11.20;99.90;;;;;;5053512;28;20270;-74
2023/05/11 04:21:05;;;;;;;10.80;2.50;;;11.30;99.90;;;;;;5053086;28;20650;-74
2023/05/11 04:23:32;;;;;;;9.02;2.95;;;11.30;99.90;;;;;;5049531;28;20265;-72
2023/05/11 04:25:59;;;;;;;5.60;2.08;;;11.30;99.90;;;;;;5033020;28;20230;-74
2023/05/11 04:28:27;;;;;;;7.25;2.63;;;11.30;99.90;;;;;;5040095;28;20199;-74
2023/05/11 04:30:55;;;;;;;9.07;2.92;;;11.20;99.90;;;;;;5052716;28;20288;-74
2023/05/11 04:33:22;;;;;;;7.57;3.00;;;11.10;99.90;;;;;;5053228;28;20293;-72
2023/05/11 04:35:52;;;;;;;6.40;2.03;;;10.90;99.90;;;;;;5052556;28;20681;-74
2023/05/11 04:38:19;;;;;;;6.60;2.55;;;11.00;99.90;;;;;;5053371;28;20292;-73
2023/05/11 04:40:46;;;;;;;8.65;2.75;;;11.00;99.90;;;;;;5043971;28;20243;-75
2023/05/11 04:43:13;;;;;;;13.70;2.70;;;10.90;99.90;;;;;;5032790;28;20243;-74
2023/05/11 04:45:40;;;;;;;4.93;2.08;;;10.90;99.90;;;;;;5033459;28;20200;-75
2023/05/11 04:48:07;;;;;;;5.60;1.95;;;10.90;99.90;;;;;;5032873;28;20249;-75
2023/05/11 04:50:36;;;;;;;10.88;2.60;;;11.00;99.90;;;;;;5033126;28;20234;-75
2023/05/11 04:53:04;;;;;;;5.90;2.08;;;11.10;99.90;;;;;;5032432;28;20258;-75
2023/05/11 04:55:31;;;;;;;9.90;3.20;;;11.20;99.90;;;;;;5032661;28;20599;-75
2023/05/11 04:57:58;;;;;;;3.83;1.75;;;11.20;99.90;;;;;;5031675;28;20266;-75
2023/05/11 05:00:25;;;;;;;7.15;2.20;;;11.10;99.90;;;;;;5032383;28;20231;-74
2023/05/11 05:02:52;;;;;;;13.70;2.95;;;11.10;99.90;;;;;;5032172;28;20220;-74
2023/05/11 05:05:19;;;;;;;6.82;2.03;;;11.10;99.90;;;;;;5032458;28;20230;-74
2023/05/11 05:07:46;;;;;;;5.43;2.22;;;11.20;99.90;;;;;;5031677;28;20642;-74
2023/05/11 05:10:14;;;;;;;8.48;2.00;;;11.20;99.90;;;;;;5032628;28;20239;-74
2023/05/11 05:12:41;;;;;;;9.02;2.38;;;11.40;99.90;;;;;;5031991;28;20243;-72
2023/05/11 05:15:10;;;;;;;7.45;3.17;;;11.40;99.90;;;;;;5032952;28;20231;-73
2023/05/11 05:17:37;;;;;;;8.77;1.98;;;11.50;99.90;;;;;;5032789;28;20211;-74
2023/05/11 05:20:04;;;;;;;4.10;1.92;;;11.40;99.90;;;;;;5032378;28;20270;-73
2023/05/11 05:22:31;;;;;;;2.65;1.70;;;11.40;99.90;;;;;;5032387;28;20254;-73
2023/05/11 05:24:58;;;;;;;4.53;2.15;;;11.60;99.90;;;;;;5031948;28;20250;-73
2023/05/11 05:27:26;;;;;;;5.03;1.60;;;11.70;99.90;;;;;;5031909;28;20302;-74
2023/05/11 05:29:53;;;;;;;7.15;1.85;;;11.60;99.90;;;;;;5032047;28;20236;-74
2023/05/11 05:32:20;;;;;;;5.75;1.92;;;11.60;99.90;;;;;;5032098;28;20243;-74
2023/05/11 05:34:47;;;;;;;6.28;2.15;;;11.60;99.90;;;;;;5031844;28;20258;-72
2023/05/11 05:37:18;;;;;;;4.45;2.00;;;11.60;99.90;;;;;;5032107;28;20203;-72
2023/05/11 05:39:45;;;;;;;4.43;2.13;;;11.70;99.90;;;;;;5031628;28;20273;-73
2023/05/11 05:42:12;;;;;;;9.85;3.25;;;11.70;99.90;;;;;;5031898;28;20650;-71
2023/05/11 05:44:40;;;;;;;9.27;3.20;;;12.00;99.90;;;;;;5031960;28;20208;-73
2023/05/11 05:47:07;;;;;;;6.78;2.70;;;12.00;99.90;;;;;;5032423;28;20231;-70
2023/05/11 05:49:34;;;;;;;3.15;2.15;;;12.00;99.90;;;;;;5031912;28;20289;-70
2023/05/11 05:52:01;;;;;;;7.65;2.13;;;12.20;99.90;;;;;;5031083;28;20207;-73
2023/05/11 05:54:28;;;;;;;11.32;2.33;;;12.30;99.90;;;;;;5031921;28;20203;-73
2023/05/11 05:56:55;;;;;;;5.25;1.48;;;12.40;99.90;;;;;;5031343;28;20234;-73
2023/05/11 05:59:23;;;;;;;4.65;1.48;;;12.40;99.90;;;;;;5031782;28;20246;-73
2023/05/11 06:01:51;;;;;;;4.40;1.92;;;12.60;99.90;;;;;;5031092;28;20229;-73
2023/05/11 06:04:18;;;;;;;6.97;1.95;;;12.60;99.90;;;;;;5031768;28;20237;-73
2023/05/11 06:06:46;;;;;;;5.78;1.85;;;12.60;99.90;;;;;;5030784;28;20559;-74
2023/05/11 06:09:13;;;;;;;4.97;2.10;;;12.70;99.90;;;;;;5031755;28;20238;-74
2023/05/11 06:11:40;;;;;;;4.30;1.42;;;12.70;99.90;;;;;;5037769;28;20238;-74
2023/05/11 06:14:07;;;;;;;2.63;1.77;;;12.70;99.90;;;;;;5050252;28;20665;-73
2023/05/11 06:16:34;;;;;;;6.57;2.20;;;12.70;99.90;;;;;;5048822;28;20237;-75
2023/05/11 06:19:02;;;;;;;8.23;2.10;;;12.70;99.90;;;;;;5050430;28;20265;-78
2023/05/11 06:21:29;;;;;;;6.13;1.85;;;12.70;99.90;;;;;;5049334;28;20214;-73
2023/05/11 06:23:56;;;;;;;8.10;2.17;;;12.80;99.90;;;;;;5048204;28;20242;-74
2023/05/11 06:26:23;;;;;;;3.38;1.60;;;12.80;99.90;;;;;;5051173;28;20234;-72
2023/05/11 06:28:51;;;;;;;6.03;2.83;;;12.80;99.90;;;;;;5043583;28;20215;-73
2023/05/11 06:31:18;;;;;;;5.28;2.53;;;12.90;99.90;;;;;;5050861;28;20214;-73
2023/05/11 06:33:45;;;;;;;7.93;2.10;;;12.80;99.90;;;;;;5050049;28;20214;-72
2023/05/11 06:36:14;;;;;;;8.55;2.33;;;12.70;99.90;;;;;;5049796;28;20269;-73
2023/05/11 06:38:41;;;;;;;3.65;1.73;;;12.70;99.90;;;;;;5050543;28;20233;-72
2023/05/11 06:41:10;;;;;;;7.80;2.50;;;12.60;99.90;;;;;;5050168;28;20682;-72
2023/05/11 06:43:37;;;;;;;7.30;2.20;;;12.70;99.90;;;;;;5050654;28;20282;-73
2023/05/11 06:46:04;;;;;;;8.85;2.97;;;12.70;99.90;;;;;;5048541;28;20250;-77
2023/05/11 06:48:31;;;;;;;7.45;3.20;;;12.70;99.90;;;;;;5049234;28;20337;-74
2023/05/11 06:50:58;;;;;;;5.40;1.85;;;12.80;99.90;;;;;;5048437;28;20250;-72
2023/05/11 06:53:26;;;;;;;7.88;2.90;;;12.80;99.90;;;;;;5050833;28;20250;-73
2023/05/11 06:55:54;;;;;;;6.93;2.50;;;12.90;99.90;;;;;;5048779;28;20249;-70
2023/05/11 06:58:21;;;;;;;6.50;2.15;;;13.00;99.90;;;;;;5049981;28;20207;-73
2023/05/11 07:00:48;;;;;;;8.85;2.92;;;12.90;99.90;;;;;;5050299;28;20223;-75
2023/05/11 07:03:15;;;;;;;3.80;2.08;;;13.00;99.90;;;;;;5048904;28;20666;-76
2023/05/11 07:05:42;;;;;;;4.75;2.05;;;13.20;99.90;;;;;;5050597;28;20218;-77
2023/05/11 07:08:09;;;;;;;7.40;2.50;;;13.20;99.90;;;;;;5046848;28;20231;-77
2023/05/11 07:10:37;;;;;;;4.00;1.95;;;13.30;99.90;;;;;;5041596;28;20696;-75
2023/05/11 07:13:05;;;;;;;4.50;2.38;;;13.50;99.90;;;;;;5062514;28;20241;-75
2023/05/11 07:15:32;;;;;;;4.70;1.83;;;13.50;99.90;;;;;;5037152;28;20695;-74
2023/05/11 07:18:00;;;;;;;7.82;2.63;;;13.60;99.90;;;;;;5050074;28;20202;-76
2023/05/11 07:20:27;;;;;;;7.13;2.63;;;13.60;99.90;;;;;;5042829;28;20227;-75
2023/05/11 07:22:57;;;;;;;12.13;2.75;;;13.70;99.90;;;;;;5029913;28;20235;-74
2023/05/11 07:25:24;;;;;;;6.63;2.25;;;13.90;99.90;;;;;;5030421;28;20206;-74
2023/05/11 07:27:52;;;;;;;4.57;2.03;;;14.00;99.90;;;;;;5046549;28;20207;-74
2023/05/11 07:30:19;;;;;;;4.20;1.95;;;14.00;99.90;;;;;;5050410;28;20318;-74
2023/05/11 07:32:46;;;;;;;6.85;1.92;;;13.90;99.90;;;;;;5053920;28;20242;-75
2023/05/11 07:35:14;;;;;;;6.60;1.88;;;14.00;99.90;;;;;;5054061;28;20289;-74
2023/05/11 07:37:41;;;;;;;12.60;2.15;;;14.00;99.90;;;;;;5052729;28;20252;-74
2023/05/11 07:40:08;;;;;;;4.70;1.40;;;13.90;99.90;;;;;;5054017;28;20266;-75
2023/05/11 07:42:35;;;;;;;6.30;2.40;;;13.80;99.90;;;;;;5053814;28;20261;-74
2023/05/11 07:45:04;;;;;;;5.90;2.03;;;13.80;99.90;;;;;;5043730;28;20242;-76
2023/05/11 07:47:31;;;;;;;3.85;1.40;;;14.00;99.90;;;;;;5053793;28;20277;-74
2023/05/11 07:49:58;;;;;;;4.85;1.58;;;14.00;99.90;;;;;;5051714;28;20242;-75
2023/05/11 07:52:25;;;;;;;4.70;1.85;;;14.00;99.90;;;;;;5052782;28;20242;-75
2023/05/11 07:54:52;;;;;;;3.17;1.75;;;14.50;99.90;;;;;;5052311;28;20215;-74
2023/05/11 07:57:19;;;;;;;5.68;2.22;;;14.70;99.90;;;;;;5052522;28;20238;-75
2023/05/11 07:59:46;;;;;;;5.68;2.30;;;14.60;99.90;;;;;;5053287;28;20339;-77
2023/05/11 08:02:15;;;;;;;5.47;1.63;;;14.50;99.90;;;;;;5047899;28;20254;-76
2023/05/11 08:04:42;;;;;;;8.00;3.08;;;14.50;99.90;;;;;;5053007;28;20740;-75
2023/05/11 08:07:09;;;;;;;4.97;1.65;;;14.30;99.90;;;;;;5050361;28;20215;-78
2023/05/11 08:09:36;;;;;;;8.57;3.28;;;14.50;99.90;;;;;;5042626;28;20230;-75
2023/05/11 08:12:03;;;;;;;13.93;3.00;;;15.20;99.90;;;;;;5053424;28;20679;-76
2023/05/11 08:14:31;;;;;;;5.00;2.17;;;15.30;99.90;;;;;;5053136;28;20272;-73
2023/05/11 08:16:58;;;;;;;4.93;2.22;;;15.00;99.90;;;;;;5052867;28;20956;-72
2023/05/11 08:19:26;;;;;;;4.78;2.08;;;15.30;99.90;;;;;;5053259;28;20231;-74
2023/05/11 08:21:53;;;;;;;5.75;2.08;;;15.80;99.90;;;;;;5052653;28;20648;-72
2023/05/11 08:24:20;;;;;;;4.20;1.27;;;15.30;99.90;;;;;;5053578;28;20246;-74
2023/05/11 08:26:47;;;;;;;3.25;1.33;;;14.90;99.90;;;;;;5052348;28;20242;-71
2023/05/11 08:29:14;;;;;;;5.45;1.30;;;14.50;99.90;;;;;;5052327;28;20219;-73
2023/05/11 08:31:41;;;;;;;4.55;1.92;;;14.10;99.90;;;;;;5051540;28;20234;-73
2023/05/11 08:34:08;;;;;;;2.55;1.92;;;13.90;99.90;;;;;;5046868;28;20246;-73
2023/05/11 08:36:36;;;;;;;4.05;1.52;;;13.70;99.90;;;;;;5051822;28;20210;-73
2023/05/11 08:39:03;;;;;;;3.53;1.35;;;13.60;99.90;;;;;;5051999;28;20736;-71
2023/05/11 08:41:31;;;;;;;5.43;1.65;;;13.40;99.90;;;;;;5051676;28;20222;-74
2023/05/11 08:43:59;;;;;;;5.70;1.77;;;13.40;99.90;;;;;;5051075;28;20242;-73
2023/05/11 08:46:29;;;;;;;11.07;2.33;;;13.50;99.90;;;;;;5053199;28;20238;-73
2023/05/11 08:48:57;;;;;;;8.32;1.67;;;13.60;99.90;;;;;;5050783;28;20590;-72
2023/05/11 08:51:25;;;;;;;7.53;2.30;;;13.90;99.90;;;;;;5048996;28;20203;-72
2023/05/11 08:53:55;;;;;;;6.40;2.88;;;13.90;99.90;;;;;;5052398;28;20294;-72
2023/05/11 08:56:22;;;;;;;5.05;1.77;;;14.30;99.90;;;;;;5044271;28;20647;-72
2023/05/11 08:58:51;;;;;;;4.10;1.83;;;14.60;99.90;;;;;;5047045;28;20302;-73
2023/05/11 09:01:21;;;;;;;3.58;2.00;;;15.20;99.90;;;;;;5052433;28;20242;-73
2023/05/11 09:03:50;;;;;;;5.25;1.75;;;15.80;99.90;;;;;;5050931;28;20272;-74
2023/05/11 09:06:18;;;;;;;3.33;1.38;;;16.00;99.90;;;;;;5041624;28;20689;-74
2023/05/11 09:08:46;;;;;;;4.40;1.63;;;15.90;99.90;;;;;;5035655;28;20258;-73
2023/05/11 09:11:14;;;;;;;10.95;1.60;;;15.80;99.90;;;;;;5032760;28;20243;-74
2023/05/11 09:13:41;;;;;;;4.45;1.75;;;16.30;99.90;;;;;;5037295;28;20203;-73
2023/05/11 09:16:08;;;;;;;7.60;2.45;;;18.50;99.90;;;;;;5052086;28;20254;-73
2023/05/11 09:18:35;;;;;;;5.20;2.08;;;21.90;99.90;;;;;;5051403;28;20241;-73
2023/05/11 09:21:02;;;;;;;3.75;1.65;;;20.10;99.90;;;;;;5051572;28;20730;-76
2023/05/11 09:23:29;;;;;;;2.83;1.25;;;20.30;99.90;;;;;;5052364;28;20257;-72
2023/05/11 09:25:56;;;;;;;3.33;1.10;;;18.10;99.90;;;;;;5051849;28;20645;-72
2023/05/11 09:28:26;;;;;;;3.60;1.70;;;17.10;99.90;;;;;;5051992;28;20693;-74
2023/05/11 09:30:53;;;;;;;4.65;1.45;;;16.50;99.90;;;;;;5040710;28;20247;-73
2023/05/11 09:33:25;;;;;;;5.18;2.15;;;16.00;99.90;;;;;;5032540;28;20667;-70
2023/05/11 09:35:53;;;;;;;5.75;1.77;;;15.60;99.90;;;;;;5049069;28;20636;-71
2023/05/11 09:38:21;;;;;;;4.25;1.73;;;16.40;99.90;;;;;;5051847;28;20649;-71
2023/05/11 09:40:53;;;;;;;4.32;1.60;;;18.10;99.90;;;;;;5050928;28;20285;-72
2023/05/11 09:43:22;;;;;;;5.60;1.45;;;17.60;99.90;;;;;;5051652;28;20705;-71
2023/05/11 09:45:51;;;;;;;1.58;1.08;;;17.60;99.90;;;;;;5049528;28;20242;-75
2023/05/11 09:48:26;;;;;;;1.58;1.08;;;17.50;99.90;;;;;;5043926;28;20249;-74
2023/05/11 09:51:01;;;;;;;4.20;1.10;;;16.40;99.90;;;;;;5041629;28;20206;-74
2023/05/11 09:53:39;;;;;;;1.88;1.10;;;15.80;99.90;;;;;;5049806;28;20263;-73
2023/05/11 09:56:07;;;;;;;3.58;1.05;;;15.50;99.90;;;;;;5035486;28;20288;-74
2023/05/11 09:58:52;;;;;;;1.95;1.00;;;15.30;99.90;;;;;;5051487;28;20679;-74
2023/05/11 10:01:31;;;;;;;2.78;1.52;;;16.30;99.90;;;;;;5047047;28;20590;-73
2023/05/11 10:03:59;;;;;;;2.10;1.15;;;18.50;99.90;;;;;;5042214;28;20216;-77
2023/05/11 10:06:27;;;;;;;2.75;1.25;;;20.20;99.90;;;;;;5037491;28;20238;-74
2023/05/11 10:08:55;;;;;;;4.50;1.55;;;22.20;99.90;;;;;;5040705;28;20207;-73
2023/05/11 10:11:22;;;;;;;3.15;1.00;;;21.60;99.90;;;;;;5051430;28;20249;-72
2023/05/11 10:13:51;;;;;;;2.30;1.27;;;20.80;99.90;;;;;;5051082;28;20234;-74
2023/05/11 10:16:20;;;;;;;3.15;0.90;;;19.80;99.90;;;;;;5050238;28;20234;-72
2023/05/11 10:18:47;;;;;;;2.70;0.82;;;18.00;99.90;;;;;;5050382;28;20253;-73
2023/05/11 10:21:15;;;;;;;1.13;0.82;;;17.10;99.90;;;;;;5051684;28;20686;-72
2023/05/11 10:23:43;;;;;;;3.08;0.90;;;20.00;99.90;;;;;;5051391;28;20289;-73
2023/05/11 10:26:11;;;;;;;1.85;1.10;;;23.50;99.90;;;;;;5050352;28;20249;-74
2023/05/11 10:28:38;;;;;;;2.08;1.30;;;22.40;99.90;;;;;;5048274;28;20234;-72
2023/05/11 10:31:06;;;;;;;2.95;1.15;;;19.00;99.90;;;;;;5050872;28;20246;-71
2023/05/11 10:33:35;;;;;;;4.90;1.15;;;17.60;99.90;;;;;;5051350;28;20199;-72
2023/05/11 10:36:03;;;;;;;3.42;1.50;;;17.70;99.90;;;;;;5050053;28;20569;-75
2023/05/11 10:38:30;;;;;;;3.55;1.10;;;17.90;99.90;;;;;;5050989;28;20217;-73
2023/05/11 10:41:04;;;;;;;3.70;0.80;;;18.00;99.90;;;;;;5050526;28;20714;-73
2023/05/11 10:43:48;;;;;;;3.05;0.82;;;18.20;99.90;;;;;;5050697;28;20246;-72
2023/05/11 10:46:29;;;;;;;2.78;0.80;;;17.70;99.90;;;;;;5051062;28;20239;-72
2023/05/11 10:49:27;;;;;;;3.33;0.98;;;16.90;99.90;;;;;;5050755;28;20241;-73
2023/05/11 10:52:13;;;;;;;3.65;1.25;;;16.80;99.90;;;;;;5036430;28;20203;-74
2023/05/11 10:54:55;;;;;;;3.20;1.05;;;17.40;99.90;;;;;;5042319;28;20764;-73
2023/05/11 10:57:52;;;;;;;2.72;1.30;;;17.90;99.90;;;;;;5050799;28;20230;-75
2023/05/11 11:01:11;;;;;;;1.85;0.98;;;18.20;99.90;;;;;;5050318;28;20276;-72
2023/05/11 11:03:38;;;;;;;2.22;1.00;;;18.60;99.90;;;;;;5048888;28;20238;-72
2023/05/11 11:06:22;;;;;;;2.03;0.98;;;19.00;99.90;;;;;;5048980;28;20273;-74
2023/05/11 11:08:57;;;;;;;3.33;1.90;;;18.60;99.90;;;;;;5046890;28;20218;-72
2023/05/11 11:11:32;;;;;;;9.32;1.63;;;18.00;99.90;;;;;;5048992;28;20218;-71
2023/05/11 11:14:02;;;;;;;2.78;1.30;;;17.30;99.90;;;;;;5049168;28;20214;-72
2023/05/11 11:16:29;;;;;;;3.95;0.95;;;17.10;99.90;;;;;;5042598;28;20198;-70
2023/05/11 11:19:34;;;;;;;2.00;0.88;;;17.00;99.90;;;;;;5048839;28;20808;-71
2023/05/11 11:22:02;;;;;;;3.83;1.05;;;16.80;99.90;;;;;;5049787;28;20262;-73
2023/05/11 11:24:44;;;;;;;9.80;4.93;;;16.50;99.90;;;;;;5049919;28;20239;-77
2023/05/11 11:27:11;;;;;;;5.97;2.70;;;16.10;99.90;;;;;;5047121;28;20206;-80
2023/05/11 11:29:40;;;;;;;100.13;51.30;;;15.90;99.90;;;;;;5049055;28;20234;-73
2023/05/11 11:32:25;;;;;;;113.20;58.95;;;16.00;99.90;;;;;;5048676;28;20276;-76
2023/05/11 11:34:52;;;;;;;16.20;11.27;;;16.60;99.90;;;;;;5037550;28;20272;-75
2023/05/11 11:37:21;;;;;;;2.72;2.13;;;17.40;99.90;;;;;;5046596;28;20206;-74
2023/05/11 11:40:03;;;;;;;9.95;5.18;;;18.00;99.90;;;;;;5047920;28;20249;-74
2023/05/11 11:42:36;;;;;;;3.67;2.30;;;18.20;99.90;;;;;;5049866;28;20209;-75
2023/05/11 11:45:26;;;;;;;5.47;3.58;;;18.20;99.90;;;;;;5029386;28;20203;-74
2023/05/11 11:48:16;;;;;;;2.13;1.75;;;18.20;99.90;;;;;;5049369;28;20203;-75
2023/05/11 11:50:44;;;;;;;3.35;1.35;;;17.90;99.90;;;;;;5049151;28;20211;-75
2023/05/11 11:54:06;;;;;;;1.48;1.00;;;18.00;99.90;;;;;;5050423;28;20272;-75
2023/05/11 11:56:42;;;;;;;10.40;2.45;;;18.10;99.90;;;;;;5050252;28;20266;-75
2023/05/11 11:59:12;;;;;;;5.30;1.40;;;18.00;99.90;;;;;;5049982;28;20238;-75
2023/05/11 12:01:40;;;;;;;1.73;1.40;;;17.70;99.90;;;;;;5048986;28;20349;-74
2023/05/11 12:04:46;;;;;;;2.53;1.25;;;17.10;99.90;;;;;;5048723;28;20301;-76
2023/05/11 12:07:13;;;;;;;3.85;1.67;;;16.70;99.90;;;;;;5045186;28;20208;-78
2023/05/11 12:09:45;;;;;;;1.48;0.60;;;16.60;99.90;;;;;;5047123;28;20284;-78
2023/05/11 12:12:12;;;;;;;1.73;1.20;;;16.70;99.90;;;;;;5050019;28;20254;-79
2023/05/11 12:14:40;;;;;;;3.97;1.48;;;17.00;99.90;;;;;;5049225;28;20686;-75
2023/05/11 12:17:12;;;;;;;2.30;0.63;;;17.60;99.90;;;;;;5051091;28;20733;-77
2023/05/11 12:19:40;;;;;;;2.95;0.98;;;17.70;99.90;;;;;;5052573;28;20209;-73
2023/05/11 12:22:09;;;;;;;1.90;0.95;;;17.70;99.90;;;;;;5042731;28;20231;-72
2023/05/11 12:24:38;;;;;;;5.90;1.48;;;16.90;99.90;;;;;;5052761;28;20210;-72
2023/05/11 12:27:06;;;;;;;3.05;0.82;;;15.40;99.90;;;;;;5053028;28;20199;-72
2023/05/11 12:29:33;;;;;;;9.48;1.30;;;14.60;99.90;;;;;;5053233;28;20238;-72
2023/05/11 12:32:00;;;;;;;3.88;1.52;;;14.30;99.90;;;;;;5052591;28;20207;-72
2023/05/11 12:34:27;;;;;;;2.88;1.00;;;14.30;99.90;;;;;;5053242;28;20215;-72
2023/05/11 12:36:55;;;;;;;3.08;0.85;;;14.80;99.90;;;;;;5050952;28;20261;-72
2023/05/11 12:39:23;;;;;;;1.83;0.80;;;15.20;99.90;;;;;;5048637;28;20666;-72
2023/05/11 12:41:52;;;;;;;5.20;1.45;;;15.10;99.90;;;;;;5045404;28;20329;-72
2023/05/11 12:44:22;;;;;;;2.55;1.05;;;15.20;99.90;;;;;;5052509;28;20234;-73
2023/05/11 12:46:50;;;;;;;3.13;1.65;;;15.30;99.90;;;;;;5052462;28;20245;-72
2023/05/11 12:49:18;;;;;;;3.00;0.85;;;15.30;99.90;;;;;;5043207;28;20222;-72
2023/05/11 12:52:01;;;;;;;5.63;1.77;;;15.50;99.90;;;;;;5052593;28;20239;-73
2023/05/11 12:54:33;;;;;;;3.28;1.58;;;15.60;99.90;;;;;;5032844;28;20206;-73
2023/05/11 12:57:01;;;;;;;2.30;0.65;;;15.90;99.90;;;;;;5049970;28;20292;-72
2023/05/11 12:59:31;;;;;;;2.45;0.80;;;16.10;99.90;;;;;;5051973;28;20211;-72